createdAt,value
2019-05-26T00:00:48.151Z,0.00
2019-05-26T00:01:47.275Z,0.00
2019-05-26T00:02:47.263Z,0.00
2019-05-26T00:03:47.254Z,0.00
2019-05-26T00:04:47.293Z,0.00
2019-05-26T00:05:47.233Z,0.00
2019-05-26T00:06:47.223Z,0.00
2019-05-26T00:07:47.211Z,0.00
2019-05-26T00:08:47.200Z,0.00
2019-05-26T00:09:47.189Z,0.00
2019-05-26T00:10:47.208Z,0.00
2019-05-26T00:11:47.171Z,0.00
2019-05-26T00:12:47.158Z,0.00
2019-05-26T00:13:47.148Z,0.00
2019-05-26T00:14:47.163Z,0.00
2019-05-26T00:15:47.168Z,0.00
2019-05-26T00:16:47.139Z,0.00
2019-05-26T00:17:47.107Z,0.00
2019-05-26T00:18:47.098Z,0.00
2019-05-26T00:19:47.085Z,0.00
2019-05-26T00:20:47.847Z,0.00
2019-05-26T00:21:48.315Z,0.00
2019-05-26T00:22:47.053Z,0.00
2019-05-26T00:23:47.046Z,0.00
2019-05-26T00:24:47.036Z,0.00
2019-05-26T00:25:47.054Z,0.00
2019-05-26T00:26:47.011Z,0.00
2019-05-26T00:27:47.004Z,0.00
2019-05-26T00:28:47.000Z,0.00
2019-05-26T00:29:46.980Z,0.00
2019-05-26T00:30:47.818Z,0.00
2019-05-26T00:31:46.959Z,0.00
2019-05-26T00:32:47.698Z,0.00
2019-05-26T00:33:46.939Z,0.00
2019-05-26T00:34:46.949Z,0.00
2019-05-26T00:35:47.697Z,0.00
2019-05-26T00:36:46.906Z,0.00
2019-05-26T00:37:49.700Z,0.00
2019-05-26T00:38:46.905Z,0.00
2019-05-26T00:39:46.875Z,0.00
2019-05-26T00:40:46.886Z,0.00
2019-05-26T00:41:47.693Z,0.00
2019-05-26T00:42:46.843Z,0.00
2019-05-26T00:43:46.836Z,0.00
2019-05-26T00:44:46.858Z,0.00
2019-05-26T00:45:47.694Z,0.00
2019-05-26T00:46:46.802Z,0.00
2019-05-26T00:47:46.792Z,0.00
2019-05-26T00:48:46.930Z,0.00
2019-05-26T00:49:46.770Z,0.00
2019-05-26T00:50:46.789Z,0.00
2019-05-26T00:51:46.749Z,0.00
2019-05-26T00:52:46.745Z,0.00
2019-05-26T00:53:46.729Z,0.00
2019-05-26T00:54:46.717Z,0.00
2019-05-26T00:55:47.344Z,0.00
2019-05-26T00:56:46.708Z,0.00
2019-05-26T00:57:46.688Z,0.00
2019-05-26T00:58:46.677Z,0.00
2019-05-26T00:59:46.666Z,0.00
2019-05-26T01:00:46.696Z,0.00
2019-05-26T01:01:46.646Z,0.00
2019-05-26T01:02:46.633Z,0.00
2019-05-26T01:03:47.421Z,0.00
2019-05-26T01:04:46.612Z,0.00
2019-05-26T01:05:49.203Z,0.00
2019-05-26T01:06:46.591Z,0.00
2019-05-26T01:07:46.581Z,0.00
2019-05-26T01:08:46.571Z,0.00
2019-05-26T01:09:46.560Z,0.00
2019-05-26T01:10:46.582Z,0.00
2019-05-26T01:11:46.539Z,0.00
2019-05-26T01:12:46.532Z,0.00
2019-05-26T01:13:46.521Z,0.00
2019-05-26T01:14:46.520Z,0.00
2019-05-26T01:15:46.498Z,0.00
2019-05-26T01:16:46.517Z,0.00
2019-05-26T01:17:46.476Z,0.00
2019-05-26T01:18:46.505Z,0.00
2019-05-26T01:19:46.455Z,0.00
2019-05-26T01:20:46.447Z,0.00
2019-05-26T01:21:46.464Z,0.00
2019-05-26T01:22:46.423Z,0.00
2019-05-26T01:23:46.414Z,0.00
2019-05-26T01:24:46.403Z,0.00
2019-05-26T01:25:46.392Z,0.00
2019-05-26T01:26:46.411Z,0.00
2019-05-26T01:27:46.372Z,0.00
2019-05-26T01:28:46.363Z,0.00
2019-05-26T01:29:46.350Z,0.00
2019-05-26T01:30:46.339Z,0.00
2019-05-26T01:31:46.356Z,0.00
2019-05-26T01:32:46.325Z,0.00
2019-05-26T01:33:46.308Z,0.00
2019-05-26T01:34:46.329Z,0.00
2019-05-26T01:35:46.286Z,0.00
2019-05-26T01:36:46.306Z,0.00
2019-05-26T01:37:46.266Z,0.00
2019-05-26T01:38:46.256Z,0.00
2019-05-26T01:39:46.246Z,0.00
2019-05-26T01:40:46.256Z,0.00
2019-05-26T01:41:46.254Z,0.00
2019-05-26T01:42:46.254Z,0.00
2019-05-26T01:43:46.203Z,0.00
2019-05-26T01:44:46.209Z,0.00
2019-05-26T01:45:46.184Z,0.00
2019-05-26T01:46:46.200Z,0.00
2019-05-26T01:47:46.161Z,0.00
2019-05-26T01:48:46.151Z,0.00
2019-05-26T01:49:46.140Z,0.00
2019-05-26T01:50:46.129Z,0.00
2019-05-26T01:51:46.151Z,0.00
2019-05-26T01:52:46.107Z,0.00
2019-05-26T01:53:46.099Z,0.00
2019-05-26T01:54:46.095Z,0.00
2019-05-26T01:55:46.083Z,0.00
2019-05-26T01:56:46.094Z,0.00
2019-05-26T01:57:46.056Z,0.00
2019-05-26T01:58:46.045Z,0.00
2019-05-26T01:59:46.039Z,0.00
2019-05-26T02:00:46.024Z,0.00
2019-05-26T02:01:46.112Z,0.00
2019-05-26T02:02:46.973Z,0.00
2019-05-26T02:03:45.993Z,0.00
2019-05-26T02:04:45.983Z,0.00
2019-05-26T02:05:45.993Z,0.00
2019-05-26T02:06:45.982Z,0.00
2019-05-26T02:07:45.951Z,0.00
2019-05-26T02:08:45.940Z,0.00
2019-05-26T02:09:45.929Z,0.00
2019-05-26T02:10:45.925Z,0.00
2019-05-26T02:11:45.936Z,0.00
2019-05-26T02:12:45.898Z,0.00
2019-05-26T02:13:45.887Z,0.00
2019-05-26T02:14:45.878Z,0.00
2019-05-26T02:15:46.432Z,0.00
2019-05-26T02:16:45.878Z,0.00
2019-05-26T02:17:45.844Z,0.00
2019-05-26T02:18:45.834Z,0.00
2019-05-26T02:19:45.822Z,0.00
2019-05-26T02:20:45.814Z,0.00
2019-05-26T02:21:46.164Z,0.00
2019-05-26T02:22:45.792Z,0.00
2019-05-26T02:23:45.782Z,0.00
2019-05-26T02:24:45.770Z,0.00
2019-05-26T02:25:45.782Z,0.00
2019-05-26T02:26:45.779Z,0.00
2019-05-26T02:27:45.772Z,0.00
2019-05-26T02:28:45.730Z,0.00
2019-05-26T02:29:45.719Z,0.00
2019-05-26T02:30:45.740Z,0.00
2019-05-26T02:31:45.699Z,0.00
2019-05-26T02:32:45.700Z,0.00
2019-05-26T02:33:45.677Z,0.00
2019-05-26T02:34:46.512Z,0.00
2019-05-26T02:35:45.678Z,0.00
2019-05-26T02:36:45.648Z,0.00
2019-05-26T02:37:45.635Z,0.00
2019-05-26T02:39:01.310Z,0.00
2019-05-26T02:39:46.615Z,0.00
2019-05-26T02:40:45.625Z,0.00
2019-05-26T02:41:46.477Z,0.00
2019-05-26T02:42:45.581Z,0.00
2019-05-26T02:43:45.573Z,0.00
2019-05-26T02:44:45.569Z,0.00
2019-05-26T02:45:45.582Z,0.00
2019-05-26T02:46:45.568Z,0.00
2019-05-26T02:47:45.532Z,0.00
2019-05-26T02:48:45.519Z,0.00
2019-05-26T02:49:45.511Z,0.00
2019-05-26T02:50:46.038Z,0.00
2019-05-26T02:51:45.488Z,0.00
2019-05-26T02:52:45.475Z,0.00
2019-05-26T02:53:45.470Z,0.00
2019-05-26T02:54:45.516Z,0.00
2019-05-26T02:55:45.468Z,0.00
2019-05-26T02:56:45.435Z,0.00
2019-05-26T02:57:45.426Z,0.00
2019-05-26T02:58:45.413Z,0.00
2019-05-26T02:59:45.403Z,0.00
2019-05-26T03:00:45.430Z,0.00
2019-05-26T03:02:02.520Z,0.00
2019-05-26T03:02:46.373Z,0.00
2019-05-26T03:03:45.359Z,0.00
2019-05-26T03:04:45.377Z,0.00
2019-05-26T03:05:45.382Z,0.00
2019-05-26T03:06:45.331Z,0.00
2019-05-26T03:07:45.345Z,0.00
2019-05-26T03:08:45.307Z,0.00
2019-05-26T03:09:45.299Z,0.00
2019-05-26T03:10:45.291Z,0.00
2019-05-26T03:11:45.300Z,0.00
2019-05-26T03:12:45.269Z,0.00
2019-05-26T03:13:45.255Z,0.00
2019-05-26T03:14:45.244Z,0.00
2019-05-26T03:15:45.247Z,0.00
2019-05-26T03:16:45.246Z,0.00
2019-05-26T03:17:45.207Z,5.62
2019-05-26T03:18:45.196Z,5.62
2019-05-26T03:19:45.185Z,5.62
2019-05-26T03:20:45.195Z,5.62
2019-05-26T03:21:45.195Z,5.62
2019-05-26T03:22:45.163Z,5.62
2019-05-26T03:23:45.144Z,5.62
2019-05-26T03:24:45.146Z,5.62
2019-05-26T03:25:45.129Z,5.62
2019-05-26T03:26:45.146Z,5.62
2019-05-26T03:27:46.035Z,5.62
2019-05-26T03:28:45.098Z,5.62
2019-05-26T03:29:45.108Z,5.62
2019-05-26T03:30:45.082Z,5.62
2019-05-26T03:31:45.091Z,11.25
2019-05-26T03:32:45.056Z,11.25
2019-05-26T03:33:45.066Z,11.25
2019-05-26T03:34:45.040Z,11.25
2019-05-26T03:35:45.035Z,11.25
2019-05-26T03:36:45.041Z,11.25
2019-05-26T03:37:45.003Z,11.25
2019-05-26T03:38:44.985Z,11.25
2019-05-26T03:39:46.301Z,11.25
2019-05-26T03:40:44.987Z,16.88
2019-05-26T03:41:44.987Z,16.88
2019-05-26T03:42:44.945Z,16.88
2019-05-26T03:43:45.760Z,16.88
2019-05-26T03:44:44.924Z,16.88
2019-05-26T03:45:44.911Z,16.88
2019-05-26T03:46:44.931Z,22.50
2019-05-26T03:47:44.898Z,22.50
2019-05-26T03:48:44.916Z,22.50
2019-05-26T03:49:44.877Z,22.50
2019-05-26T03:50:44.861Z,22.50
2019-05-26T03:51:44.880Z,22.50
2019-05-26T03:52:44.924Z,28.12
2019-05-26T03:53:44.838Z,28.12
2019-05-26T03:54:44.820Z,28.12
2019-05-26T03:55:46.159Z,28.12
2019-05-26T03:56:45.636Z,33.75
2019-05-26T03:57:44.816Z,33.75
2019-05-26T03:58:44.776Z,33.75
2019-05-26T03:59:44.765Z,33.75
2019-05-26T04:00:44.755Z,33.75
2019-05-26T04:01:44.786Z,33.75
2019-05-26T04:02:44.741Z,33.75
2019-05-26T04:03:44.736Z,33.75
2019-05-26T04:04:44.715Z,33.75
2019-05-26T04:05:44.703Z,33.75
2019-05-26T04:06:45.777Z,33.75
2019-05-26T04:07:44.681Z,33.75
2019-05-26T04:08:44.670Z,33.75
2019-05-26T04:10:02.966Z,33.75
2019-05-26T04:10:45.649Z,33.75
2019-05-26T04:11:45.297Z,33.75
2019-05-26T04:12:44.652Z,33.75
2019-05-26T04:13:44.625Z,33.75
2019-05-26T04:14:44.607Z,33.75
2019-05-26T04:15:44.596Z,33.75
2019-05-26T04:16:44.621Z,33.75
2019-05-26T04:17:44.610Z,33.75
2019-05-26T04:18:44.565Z,33.75
2019-05-26T04:19:44.558Z,33.75
2019-05-26T04:20:45.966Z,33.75
2019-05-26T04:21:44.533Z,33.75
2019-05-26T04:22:45.203Z,33.75
2019-05-26T04:23:44.513Z,39.38
2019-05-26T04:24:44.501Z,39.38
2019-05-26T04:25:44.499Z,39.38
2019-05-26T04:26:44.482Z,45.00
2019-05-26T04:27:44.537Z,45.00
2019-05-26T04:28:44.470Z,45.00
2019-05-26T04:29:44.450Z,45.00
2019-05-26T04:30:44.440Z,45.00
2019-05-26T04:31:44.427Z,45.00
2019-05-26T04:32:44.446Z,45.00
2019-05-26T04:33:44.414Z,45.00
2019-05-26T04:34:44.396Z,50.62
2019-05-26T04:35:44.422Z,50.62
2019-05-26T04:36:44.393Z,50.62
2019-05-26T04:37:44.396Z,50.62
2019-05-26T04:38:44.355Z,56.25
2019-05-26T04:39:44.356Z,56.25
2019-05-26T04:40:44.342Z,56.25
2019-05-26T04:41:44.398Z,56.25
2019-05-26T04:42:44.347Z,56.25
2019-05-26T04:43:44.318Z,61.88
2019-05-26T04:44:44.322Z,61.88
2019-05-26T04:45:44.281Z,61.88
2019-05-26T04:46:45.192Z,67.50
2019-05-26T04:47:44.290Z,67.50
2019-05-26T04:48:44.250Z,67.50
2019-05-26T04:49:44.241Z,67.50
2019-05-26T04:50:44.228Z,73.12
2019-05-26T04:51:44.220Z,67.50
2019-05-26T04:53:04.561Z,67.50
2019-05-26T04:53:45.223Z,73.12
2019-05-26T04:54:44.208Z,73.12
2019-05-26T04:55:44.175Z,73.12
2019-05-26T04:56:44.168Z,73.12
2019-05-26T04:57:44.184Z,67.50
2019-05-26T04:58:44.146Z,73.12
2019-05-26T04:59:44.134Z,73.12
2019-05-26T05:00:44.124Z,73.12
2019-05-26T05:01:44.191Z,73.12
2019-05-26T05:02:44.154Z,73.12
2019-05-26T05:03:44.101Z,73.12
2019-05-26T05:04:44.082Z,73.12
2019-05-26T05:05:44.071Z,73.12
2019-05-26T05:06:44.060Z,78.75
2019-05-26T05:07:44.080Z,78.75
2019-05-26T05:08:44.039Z,78.75
2019-05-26T05:09:44.028Z,78.75
2019-05-26T05:10:44.018Z,78.75
2019-05-26T05:11:44.007Z,78.75
2019-05-26T05:12:44.776Z,78.75
2019-05-26T05:13:43.988Z,84.38
2019-05-26T05:14:44.682Z,84.38
2019-05-26T05:15:43.965Z,84.38
2019-05-26T05:16:43.958Z,84.38
2019-05-26T05:17:43.965Z,84.38
2019-05-26T05:18:43.933Z,84.38
2019-05-26T05:19:44.796Z,84.38
2019-05-26T05:20:44.776Z,84.38
2019-05-26T05:21:43.902Z,84.38
2019-05-26T05:22:43.992Z,84.38
2019-05-26T05:23:43.889Z,84.38
2019-05-26T05:24:43.868Z,84.38
2019-05-26T05:25:44.389Z,90.00
2019-05-26T05:26:43.882Z,84.38
2019-05-26T05:27:44.418Z,90.00
2019-05-26T05:28:43.825Z,84.38
2019-05-26T05:29:43.817Z,90.00
2019-05-26T05:30:43.808Z,90.00
2019-05-26T05:31:43.787Z,90.00
2019-05-26T05:32:43.778Z,84.38
2019-05-26T05:33:43.796Z,95.62
2019-05-26T05:34:43.756Z,95.62
2019-05-26T05:35:43.753Z,101.25
2019-05-26T05:36:43.734Z,106.88
2019-05-26T05:37:44.344Z,101.25
2019-05-26T05:38:43.748Z,101.25
2019-05-26T05:39:43.704Z,106.88
2019-05-26T05:40:58.337Z,112.50
2019-05-26T05:41:44.684Z,112.50
2019-05-26T05:42:43.671Z,112.50
2019-05-26T05:43:43.691Z,118.12
2019-05-26T05:44:43.653Z,118.12
2019-05-26T05:45:44.841Z,118.12
2019-05-26T05:46:43.631Z,118.12
2019-05-26T05:47:44.957Z,112.50
2019-05-26T05:48:43.640Z,118.12
2019-05-26T05:49:43.599Z,112.50
2019-05-26T05:50:43.589Z,118.12
2019-05-26T05:51:43.578Z,118.12
2019-05-26T05:52:43.567Z,123.75
2019-05-26T05:53:44.448Z,123.75
2019-05-26T05:54:43.547Z,123.75
2019-05-26T05:55:43.535Z,123.75
2019-05-26T05:56:43.525Z,129.38
2019-05-26T05:57:43.514Z,118.12
2019-05-26T05:58:43.525Z,129.38
2019-05-26T05:59:43.524Z,135.00
2019-05-26T06:00:43.484Z,140.62
2019-05-26T06:01:43.476Z,146.25
2019-05-26T06:02:43.470Z,146.25
2019-05-26T06:03:43.494Z,146.25
2019-05-26T06:04:43.951Z,146.25
2019-05-26T06:05:43.433Z,146.25
2019-05-26T06:06:43.412Z,151.88
2019-05-26T06:07:43.413Z,151.88
2019-05-26T06:08:43.500Z,151.88
2019-05-26T06:09:44.789Z,151.88
2019-05-26T06:10:43.400Z,146.25
2019-05-26T06:11:43.369Z,146.25
2019-05-26T06:12:44.301Z,151.88
2019-05-26T06:13:43.339Z,151.88
2019-05-26T06:14:43.328Z,157.50
2019-05-26T06:15:43.351Z,157.50
2019-05-26T06:16:43.314Z,157.50
2019-05-26T06:17:43.308Z,146.25
2019-05-26T06:18:43.287Z,146.25
2019-05-26T06:19:43.286Z,157.50
2019-05-26T06:20:43.295Z,163.12
2019-05-26T06:21:43.944Z,163.12
2019-05-26T06:22:43.245Z,163.12
2019-05-26T06:23:43.242Z,163.12
2019-05-26T06:24:43.224Z,168.75
2019-05-26T06:25:43.261Z,163.12
2019-05-26T06:26:43.225Z,157.50
2019-05-26T06:27:43.203Z,163.12
2019-05-26T06:28:43.209Z,168.75
2019-05-26T06:29:57.782Z,174.38
2019-05-26T06:30:44.202Z,180.00
2019-05-26T06:31:43.246Z,180.00
2019-05-26T06:32:43.147Z,180.00
2019-05-26T06:33:43.938Z,185.62
2019-05-26T06:34:43.119Z,174.38
2019-05-26T06:35:43.108Z,180.00
2019-05-26T06:36:43.127Z,185.62
2019-05-26T06:37:43.088Z,180.00
2019-05-26T06:38:43.076Z,168.75
2019-05-26T06:39:43.066Z,168.75
2019-05-26T06:40:43.065Z,180.00
2019-05-26T06:41:43.080Z,180.00
2019-05-26T06:42:43.045Z,185.62
2019-05-26T06:43:43.835Z,191.25
2019-05-26T06:44:52.936Z,191.25
2019-05-26T06:45:45.050Z,180.00
2019-05-26T06:46:43.020Z,174.38
2019-05-26T06:47:43.959Z,185.62
2019-05-26T06:48:42.972Z,191.25
2019-05-26T06:49:42.969Z,208.12
2019-05-26T06:50:43.472Z,185.62
2019-05-26T06:51:42.969Z,202.50
2019-05-26T06:52:42.931Z,208.12
2019-05-26T06:53:42.920Z,213.75
2019-05-26T06:54:42.907Z,213.75
2019-05-26T06:55:42.899Z,219.38
2019-05-26T06:56:42.916Z,219.38
2019-05-26T06:57:43.509Z,213.75
2019-05-26T06:58:42.871Z,208.12
2019-05-26T06:59:42.851Z,180.00
2019-05-26T07:00:42.866Z,202.50
2019-05-26T07:01:42.858Z,196.88
2019-05-26T07:02:42.825Z,196.88
2019-05-26T07:03:42.820Z,213.75
2019-05-26T07:04:42.804Z,219.38
2019-05-26T07:05:42.795Z,225.00
2019-05-26T07:06:42.805Z,219.38
2019-05-26T07:07:43.633Z,219.38
2019-05-26T07:08:42.755Z,219.38
2019-05-26T07:09:42.743Z,219.38
2019-05-26T07:10:42.733Z,213.75
2019-05-26T07:11:55.676Z,225.00
2019-05-26T07:12:43.712Z,236.25
2019-05-26T07:13:42.704Z,230.62
2019-05-26T07:14:42.713Z,230.62
2019-05-26T07:15:42.682Z,225.00
2019-05-26T07:16:42.701Z,236.25
2019-05-26T07:17:42.662Z,241.88
2019-05-26T07:18:42.673Z,247.50
2019-05-26T07:19:42.640Z,247.50
2019-05-26T07:20:42.679Z,247.50
2019-05-26T07:21:42.647Z,247.50
2019-05-26T07:22:43.510Z,247.50
2019-05-26T07:23:42.597Z,241.88
2019-05-26T07:24:42.597Z,241.88
2019-05-26T07:25:42.576Z,241.88
2019-05-26T07:26:42.595Z,236.25
2019-05-26T07:27:42.555Z,236.25
2019-05-26T07:28:42.545Z,236.25
2019-05-26T07:29:42.532Z,236.25
2019-05-26T07:30:43.045Z,236.25
2019-05-26T07:31:42.543Z,236.25
2019-05-26T07:32:42.504Z,236.25
2019-05-26T07:33:42.494Z,247.50
2019-05-26T07:34:42.483Z,230.62
2019-05-26T07:35:42.469Z,253.12
2019-05-26T07:36:42.466Z,258.75
2019-05-26T07:37:42.473Z,264.38
2019-05-26T07:38:42.443Z,264.38
2019-05-26T07:39:42.501Z,264.38
2019-05-26T07:40:42.423Z,270.00
2019-05-26T07:41:42.403Z,270.00
2019-05-26T07:42:43.198Z,264.38
2019-05-26T07:43:42.409Z,264.38
2019-05-26T07:44:42.391Z,270.00
2019-05-26T07:45:42.360Z,270.00
2019-05-26T07:46:42.354Z,275.62
2019-05-26T07:47:42.389Z,270.00
2019-05-26T07:48:42.328Z,275.62
2019-05-26T07:49:42.325Z,286.88
2019-05-26T07:50:42.307Z,281.25
2019-05-26T07:51:42.297Z,281.25
2019-05-26T07:52:42.316Z,275.62
2019-05-26T07:53:42.279Z,298.12
2019-05-26T07:54:42.305Z,298.12
2019-05-26T07:55:42.254Z,298.12
2019-05-26T07:56:42.245Z,303.75
2019-05-26T07:57:42.262Z,303.75
2019-05-26T07:58:42.224Z,298.12
2019-05-26T07:59:42.213Z,298.12
2019-05-26T08:00:42.202Z,303.75
2019-05-26T08:01:43.142Z,303.75
2019-05-26T08:02:42.202Z,298.12
2019-05-26T08:03:42.174Z,298.12
2019-05-26T08:04:42.160Z,303.75
2019-05-26T08:05:42.167Z,309.38
2019-05-26T08:06:43.122Z,309.38
2019-05-26T08:07:42.151Z,309.38
2019-05-26T08:08:42.118Z,298.12
2019-05-26T08:09:42.111Z,309.38
2019-05-26T08:10:42.099Z,303.75
2019-05-26T08:11:42.088Z,315.00
2019-05-26T08:12:42.105Z,320.62
2019-05-26T08:13:42.065Z,320.62
2019-05-26T08:14:42.058Z,320.62
2019-05-26T08:15:42.109Z,331.88
2019-05-26T08:16:42.036Z,331.88
2019-05-26T08:17:42.048Z,331.88
2019-05-26T08:18:42.015Z,331.88
2019-05-26T08:19:42.006Z,337.50
2019-05-26T08:20:41.996Z,337.50
2019-05-26T08:21:41.975Z,343.12
2019-05-26T08:22:42.035Z,348.75
2019-05-26T08:23:42.548Z,343.12
2019-05-26T08:24:42.754Z,343.12
2019-05-26T08:25:41.958Z,348.75
2019-05-26T08:26:41.930Z,348.75
2019-05-26T08:27:41.942Z,348.75
2019-05-26T08:28:41.902Z,348.75
2019-05-26T08:29:41.899Z,354.38
2019-05-26T08:30:41.882Z,354.38
2019-05-26T08:31:41.877Z,360.00
2019-05-26T08:32:41.861Z,360.00
2019-05-26T08:33:41.880Z,365.62
2019-05-26T08:34:41.862Z,371.25
2019-05-26T08:35:41.867Z,360.00
2019-05-26T08:36:41.819Z,365.62
2019-05-26T08:37:41.809Z,371.25
2019-05-26T08:38:41.845Z,382.50
2019-05-26T08:39:41.788Z,382.50
2019-05-26T08:40:41.778Z,376.88
2019-05-26T08:41:41.785Z,371.25
2019-05-26T08:42:44.513Z,376.88
2019-05-26T08:43:41.768Z,371.25
2019-05-26T08:44:41.735Z,225.00
2019-05-26T08:45:41.815Z,388.12
2019-05-26T08:46:41.714Z,382.50
2019-05-26T08:47:41.704Z,388.12
2019-05-26T08:48:41.723Z,388.12
2019-05-26T08:49:41.684Z,388.12
2019-05-26T08:50:41.674Z,393.75
2019-05-26T08:51:41.663Z,376.88
2019-05-26T08:52:41.659Z,399.38
2019-05-26T08:53:41.671Z,393.75
2019-05-26T08:54:41.636Z,393.75
2019-05-26T08:55:41.622Z,393.75
2019-05-26T08:56:41.611Z,399.38
2019-05-26T08:57:41.605Z,264.38
2019-05-26T08:58:41.611Z,405.00
2019-05-26T08:59:41.577Z,410.62
2019-05-26T09:00:41.575Z,410.62
2019-05-26T09:01:41.559Z,393.75
2019-05-26T09:02:41.593Z,410.62
2019-05-26T09:03:41.560Z,399.38
2019-05-26T09:04:41.519Z,393.75
2019-05-26T09:05:41.509Z,410.62
2019-05-26T09:06:41.505Z,393.75
2019-05-26T09:07:41.509Z,371.25
2019-05-26T09:08:41.506Z,376.88
2019-05-26T09:09:41.471Z,247.50
2019-05-26T09:10:41.464Z,388.12
2019-05-26T09:11:41.447Z,427.50
2019-05-26T09:12:41.446Z,371.25
2019-05-26T09:13:41.456Z,388.12
2019-05-26T09:14:41.457Z,405.00
2019-05-26T09:15:41.413Z,427.50
2019-05-26T09:16:41.401Z,450.00
2019-05-26T09:17:41.384Z,450.00
2019-05-26T09:18:42.416Z,455.62
2019-05-26T09:19:41.398Z,461.25
2019-05-26T09:20:41.423Z,466.88
2019-05-26T09:21:41.375Z,472.50
2019-05-26T09:22:41.336Z,478.12
2019-05-26T09:23:41.351Z,489.38
2019-05-26T09:24:41.334Z,472.50
2019-05-26T09:25:41.810Z,472.50
2019-05-26T09:26:42.211Z,196.88
2019-05-26T09:27:41.279Z,461.25
2019-05-26T09:28:41.299Z,427.50
2019-05-26T09:29:41.268Z,461.25
2019-05-26T09:30:41.252Z,472.50
2019-05-26T09:31:41.238Z,455.62
2019-05-26T09:32:41.230Z,180.00
2019-05-26T09:33:41.239Z,483.75
2019-05-26T09:34:41.964Z,202.50
2019-05-26T09:35:41.948Z,500.62
2019-05-26T09:36:41.220Z,472.50
2019-05-26T09:37:41.180Z,450.00
2019-05-26T09:38:41.193Z,466.88
2019-05-26T09:39:41.155Z,450.00
2019-05-26T09:40:41.154Z,472.50
2019-05-26T09:41:41.138Z,472.50
2019-05-26T09:42:41.124Z,478.12
2019-05-26T09:43:41.175Z,483.75
2019-05-26T09:44:41.102Z,472.50
2019-05-26T09:45:41.093Z,478.12
2019-05-26T09:46:41.965Z,489.38
2019-05-26T09:47:41.073Z,500.62
2019-05-26T09:48:41.743Z,506.25
2019-05-26T09:49:41.052Z,511.88
2019-05-26T09:50:41.041Z,517.50
2019-05-26T09:51:41.029Z,517.50
2019-05-26T09:52:41.020Z,523.12
2019-05-26T09:53:41.030Z,523.12
2019-05-26T09:54:41.002Z,523.12
2019-05-26T09:55:40.987Z,540.00
2019-05-26T09:56:40.977Z,540.00
2019-05-26T09:57:40.973Z,551.25
2019-05-26T09:58:41.839Z,551.25
2019-05-26T09:59:40.945Z,545.62
2019-05-26T10:00:40.935Z,534.38
2019-05-26T10:01:40.927Z,540.00
2019-05-26T10:02:40.947Z,545.62
2019-05-26T10:03:40.906Z,545.62
2019-05-26T10:04:40.924Z,545.62
2019-05-26T10:05:41.377Z,551.25
2019-05-26T10:06:41.517Z,483.75
2019-05-26T10:07:40.877Z,551.25
2019-05-26T10:08:40.848Z,562.50
2019-05-26T10:09:40.866Z,241.88
2019-05-26T10:10:41.375Z,236.25
2019-05-26T10:11:40.816Z,225.00
2019-05-26T10:12:40.805Z,517.50
2019-05-26T10:13:40.835Z,528.75
2019-05-26T10:14:40.817Z,528.75
2019-05-26T10:15:40.774Z,517.50
2019-05-26T10:16:40.763Z,523.12
2019-05-26T10:17:40.753Z,551.25
2019-05-26T10:18:40.774Z,585.00
2019-05-26T10:19:40.819Z,601.88
2019-05-26T10:20:40.728Z,556.88
2019-05-26T10:21:40.712Z,241.88
2019-05-26T10:22:40.723Z,236.25
2019-05-26T10:23:40.690Z,281.25
2019-05-26T10:24:40.709Z,281.25
2019-05-26T10:25:40.836Z,286.88
2019-05-26T10:26:41.530Z,461.25
2019-05-26T10:27:40.651Z,573.75
2019-05-26T10:28:40.639Z,590.62
2019-05-26T10:29:40.658Z,534.38
2019-05-26T10:30:41.407Z,450.00
2019-05-26T10:31:40.608Z,495.00
2019-05-26T10:32:40.598Z,528.75
2019-05-26T10:33:41.428Z,590.62
2019-05-26T10:34:40.607Z,613.12
2019-05-26T10:35:40.574Z,556.88
2019-05-26T10:36:40.742Z,573.75
2019-05-26T10:37:41.416Z,573.75
2019-05-26T10:38:42.175Z,517.50
2019-05-26T10:39:44.869Z,472.50
2019-05-26T10:40:40.683Z,331.88
2019-05-26T10:41:41.414Z,534.38
2019-05-26T10:42:40.494Z,478.12
2019-05-26T10:43:47.403Z,421.88
2019-05-26T10:44:41.534Z,455.62
2019-05-26T10:45:40.463Z,455.62
2019-05-26T10:46:40.452Z,455.62
2019-05-26T10:47:40.446Z,472.50
2019-05-26T10:48:40.432Z,511.88
2019-05-26T10:49:40.452Z,523.12
2019-05-26T10:50:40.420Z,466.88
2019-05-26T10:51:40.601Z,450.00
2019-05-26T10:52:40.396Z,410.62
2019-05-26T10:53:40.381Z,399.38
2019-05-26T10:54:40.397Z,388.12
2019-05-26T10:55:40.359Z,416.25
2019-05-26T10:56:40.349Z,416.25
2019-05-26T10:57:40.546Z,438.75
2019-05-26T10:58:40.331Z,410.62
2019-05-26T10:59:40.347Z,511.88
2019-05-26T11:00:40.308Z,511.88
2019-05-26T11:01:40.302Z,511.88
2019-05-26T11:02:40.329Z,506.25
2019-05-26T11:03:40.279Z,461.25
2019-05-26T11:04:41.036Z,444.38
2019-05-26T11:05:40.264Z,511.88
2019-05-26T11:06:40.314Z,596.25
2019-05-26T11:07:40.236Z,562.50
2019-05-26T11:08:41.019Z,585.00
2019-05-26T11:09:40.259Z,601.88
2019-05-26T11:10:41.158Z,607.50
2019-05-26T11:11:40.194Z,573.75
2019-05-26T11:12:40.234Z,551.25
2019-05-26T11:13:40.919Z,540.00
2019-05-26T11:14:40.376Z,613.12
2019-05-26T11:15:40.312Z,618.75
2019-05-26T11:16:40.140Z,326.25
2019-05-26T11:17:40.131Z,618.75
2019-05-26T11:18:40.243Z,613.12
2019-05-26T11:19:40.114Z,331.88
2019-05-26T11:20:40.121Z,585.00
2019-05-26T11:21:40.094Z,607.50
2019-05-26T11:22:40.088Z,540.00
2019-05-26T11:23:40.597Z,343.12
2019-05-26T11:24:40.156Z,607.50
2019-05-26T11:25:41.187Z,534.38
2019-05-26T11:26:40.039Z,601.88
2019-05-26T11:27:40.019Z,618.75
2019-05-26T11:28:40.015Z,596.25
2019-05-26T11:29:40.022Z,613.12
2019-05-26T11:30:40.017Z,613.12
2019-05-26T11:31:39.987Z,646.88
2019-05-26T11:32:39.977Z,658.12
2019-05-26T11:33:40.038Z,652.50
2019-05-26T11:34:40.517Z,680.62
2019-05-26T11:35:39.966Z,691.88
2019-05-26T11:36:40.541Z,708.75
2019-05-26T11:37:39.915Z,697.50
2019-05-26T11:38:39.913Z,714.38
2019-05-26T11:39:39.899Z,759.38
2019-05-26T11:40:39.915Z,888.75
2019-05-26T11:41:39.944Z,967.50
2019-05-26T11:42:39.866Z,1023.75
2019-05-26T11:43:39.854Z,832.50
2019-05-26T11:44:39.873Z,928.12
2019-05-26T11:45:39.863Z,855.00
2019-05-26T11:46:39.822Z,331.88
2019-05-26T11:47:39.820Z,714.38
2019-05-26T11:48:40.530Z,725.62
2019-05-26T11:49:39.800Z,489.38
2019-05-26T11:50:39.815Z,450.00
2019-05-26T11:51:39.771Z,708.75
2019-05-26T11:52:39.840Z,720.00
2019-05-26T11:53:39.750Z,686.25
2019-05-26T11:54:40.705Z,669.38
2019-05-26T11:55:39.779Z,675.00
2019-05-26T11:56:39.717Z,596.25
2019-05-26T11:57:39.709Z,607.50
2019-05-26T11:58:39.702Z,630.00
2019-05-26T11:59:39.691Z,641.25
2019-05-26T12:00:40.418Z,675.00
2019-05-26T12:01:39.669Z,725.62
2019-05-26T12:02:39.657Z,264.38
2019-05-26T12:03:40.421Z,247.50
2019-05-26T12:04:39.635Z,258.75
2019-05-26T12:05:40.755Z,438.75
2019-05-26T12:06:39.615Z,241.88
2019-05-26T12:07:40.158Z,247.50
2019-05-26T12:08:39.609Z,613.12
2019-05-26T12:09:39.583Z,720.00
2019-05-26T12:10:39.594Z,748.12
2019-05-26T12:11:39.573Z,258.75
2019-05-26T12:12:39.547Z,607.50
2019-05-26T12:13:39.542Z,697.50
2019-05-26T12:14:39.532Z,714.38
2019-05-26T12:15:39.544Z,286.88
2019-05-26T12:16:39.539Z,275.62
2019-05-26T12:17:39.496Z,697.50
2019-05-26T12:18:39.490Z,646.88
2019-05-26T12:19:39.472Z,652.50
2019-05-26T12:20:39.492Z,748.12
2019-05-26T12:21:39.474Z,607.50
2019-05-26T12:22:39.448Z,765.00
2019-05-26T12:23:39.431Z,646.88
2019-05-26T12:24:39.442Z,551.25
2019-05-26T12:25:39.428Z,568.12
2019-05-26T12:26:39.432Z,646.88
2019-05-26T12:27:39.393Z,663.75
2019-05-26T12:28:39.384Z,680.62
2019-05-26T12:29:39.384Z,748.12
2019-05-26T12:30:39.366Z,585.00
2019-05-26T12:31:39.379Z,804.38
2019-05-26T12:32:39.359Z,568.12
2019-05-26T12:33:39.327Z,815.62
2019-05-26T12:34:39.317Z,821.25
2019-05-26T12:35:39.306Z,810.00
2019-05-26T12:36:39.625Z,798.75
2019-05-26T12:37:40.086Z,781.88
2019-05-26T12:38:39.276Z,748.12
2019-05-26T12:39:39.265Z,545.62
2019-05-26T12:40:40.085Z,607.50
2019-05-26T12:41:39.285Z,286.88
2019-05-26T12:42:39.235Z,298.12
2019-05-26T12:43:39.229Z,410.62
2019-05-26T12:44:49.042Z,275.62
2019-05-26T12:45:40.226Z,691.88